Página principal
METAR-TAF:

METAR-TAF

Aeroportos :

Aeroporto de Madrid-Barajas

Madrid, Espanha

latitude: 40-27N, longitude: 003-33W, altura: 609 m

Observação actual do tempo

O boletim foi feito há 39 minutos, às 07:00 UTC
Vento 10 kt de norte, variando entre noroeste e es-nordeste
Temperatura 13°C
Humidade 47%
Pressão 1020 hPa
Visibilidade 10 km ou mais
sem nuvens abaixo de 1500 metros e sem cumulonimbus

METAR: LEMD 250700Z 01010KT 310V070 CAVOK 13/02 Q1020 NOSIG

Hora: 09:39 (07:39 UTC)

Previsão

O boletim foi feito há 30 minutos, às 07:09 UTC
Previsão válida de 25 às 06 UTC a 26 às 12 UTC
Vento 10 kt de norte
Visibilidade 10 km ou mais
sem nuvens abaixo de 1500 metros e sem cumulonimbus
Probabilidade 40% :
Temporariamente
de 25 às 07 UTC a 25 às 22 UTC
Vento 15 kt de norte com rajadas de 25 kt

TAF: LEMD 250709Z 2506/2612 01010KT CAVOK TX25/2515Z TN09/2506Z PROB40 TEMPO 2507/2522 01015G25KT

Observações e previsões do tempo de mais de 4000 aeroportos (mensagens METAR e TAF).

As estações disponíveis são os pontos amarelos e vermelhos sobre o mapa.

Mova o rato sobre o mapa para ver o nome da estação.

Depois clique no ponto para visualizar as observações e previsões meteorológicas.

Para alterar o mapa : clique nos botões verdes com uma cruz preta para aumentar o zoom; no botão verde com uma pitada de zoom; ou nas setas verdes para mapas adjacentes.


METAR-TAF: